Arrey, NM (87930)

5:27 AM MDT on April 27, 2015 (GMT -0600)
MesoWest | | Change Station
CLOSE
Current Station
Personal Weather Station
Location: Hillsboro, NM
Elevation: 5270 ft
Nearby Weather Stations

Elev 5270 ft 32.92 °N, 107.57 °W | Updated 38 minutes ago

Partly Cloudy
Partly Cloudy
42 °F
Feels Like 42 °F
N
0
Wind Variable Wind from North
Gusts 1.0 mph

Today
High -- | Low -- °F
--% Chance of Precip.
Yesterday
High -- | Low -- °F
Precip. -- in
6:26 AM 7:48 PM
Waxing Gibbous, 64% visible
Pressure 29.75 in
Visibility 10.0 miles
Clouds Scattered Clouds 4200 ft
Mostly Cloudy 5000 ft
Windchill 42 °F
Dew Point 37 °F
Humidity 84%
Rainfall in
Snow Depth Not available.
UV 0 out of 12
Pollen 5.80 out of 12
Air Quality Not available.
Flu Activity Local Activity
METAR KTCS 271053Z AUTO 00000KT 10SM SCT042 BKN050 07/06 A2988 RMK AO2 SLP075 T00720056 TSNO

More Conditions Fewer Conditions

Pressure 29.75 in
Visibility 10.0 miles
Clouds Scattered Clouds 4200 ft
Mostly Cloudy 5000 ft
Windchill 42 °F
Dew Point 37 °F
Humidity 84%
Rainfall in
Snow Depth Not available.
UV 0 out of 12
Pollen 5.80 out of 12
Air Quality Not available.
Flu Activity Local Activity
METAR KTCS 271053Z AUTO 00000KT 10SM SCT042 BKN050 07/06 A2988 RMK AO2 SLP075 T00720056 TSNO

More Conditions Fewer Conditions

Nowcast | as of 2:27 am MDT on April 27, 2015

At 225 am MDT...National Weather Service radar indicated a small band of light showers moving into northern Sierra and Otero counties. This band will continue moving southeast through those areas with light rain showers and high elevation snow showers possible. Light snow accumulations of half an inch to an inch will be possible for elevations above 7500 feet.

×

10-Day Weather Forecast

Almanac

Astronomy

Apr. 27, 2015 Rise Set
Actual Time
Civil Twilight
Nautical Twilight
Astronomical Twilight
Moon
Length of Visible Light
Length of Day
Tomorrow will be .
, % of the Moon is Illuminated

Today's Extremes

State Highs State Lows

Community

WunderPhotos

Upload Photos

1,817,282 photos uploaded!

WunderBlogs® & News

Nearby

Air Quality

  Air Quality AQ Index Pollutant
Not available.

Snow Depth

Station Depth Elevation

Earthquake Activity

City Distance Mag. Time & Date
Minimum magnitude displayed is 2.5.

Coastal Water Temperatures

Place Temperature

Stations

Nearby Weather Stations

Station Location Temp. Windchill Dew Point Humidity Wind Precip. Elev Updated Type